createdAt,value
2019-02-08T00:13:06.461Z,99.99
2019-02-08T00:13:56.638Z,99.99
2019-02-08T00:14:56.613Z,99.99
2019-02-08T00:15:56.592Z,99.99
2019-02-08T00:16:56.565Z,99.99
2019-02-08T00:17:56.566Z,99.99
2019-02-08T00:18:56.537Z,99.99
2019-02-08T00:19:56.515Z,99.99
2019-02-08T00:20:56.500Z,99.99
2019-02-08T00:21:56.509Z,99.99
2019-02-08T00:22:56.466Z,99.99
2019-02-08T00:23:56.443Z,99.99
2019-02-08T00:24:56.431Z,99.99
2019-02-08T00:25:56.418Z,99.99
2019-02-08T00:26:56.419Z,99.99
2019-02-08T00:27:56.380Z,99.99
2019-02-08T00:28:56.346Z,99.99
2019-02-08T00:29:56.327Z,99.99
2019-02-08T00:30:56.305Z,99.99
2019-02-08T00:31:56.334Z,99.99
2019-02-08T00:32:56.273Z,99.99
2019-02-08T00:33:56.256Z,99.99
2019-02-08T00:34:56.242Z,99.99
2019-02-08T00:35:56.220Z,99.99
2019-02-08T00:36:56.200Z,99.99
2019-02-08T00:37:56.181Z,99.99
2019-02-08T00:38:56.166Z,99.99
2019-02-08T00:39:56.136Z,99.99
2019-02-08T00:40:56.121Z,99.99
2019-02-08T00:41:56.104Z,99.99
2019-02-08T00:42:56.114Z,99.99
2019-02-08T00:43:56.069Z,99.99
2019-02-08T00:44:56.046Z,99.99
2019-02-08T00:45:56.046Z,99.99
2019-02-08T00:46:56.006Z,99.99
2019-02-08T00:47:56.006Z,99.99
2019-02-08T00:48:55.969Z,99.99
2019-02-08T00:49:55.953Z,99.99
2019-02-08T00:50:55.950Z,99.99
2019-02-08T00:51:55.925Z,99.99
2019-02-08T00:52:55.939Z,99.99
2019-02-08T00:53:55.881Z,99.99
2019-02-08T00:54:55.899Z,99.99
2019-02-08T00:55:55.840Z,99.99
2019-02-08T00:56:55.819Z,99.99
2019-02-08T00:57:55.801Z,99.99
2019-02-08T00:58:55.793Z,99.99
2019-02-08T00:59:55.810Z,99.99
2019-02-08T01:00:55.782Z,99.99
2019-02-08T01:37:04.022Z,99.99
2019-02-08T01:38:04.000Z,99.99
2019-02-08T01:39:03.980Z,99.99
2019-02-08T01:40:03.946Z,99.99
2019-02-08T01:41:03.932Z,99.99
2019-02-08T01:42:03.916Z,99.99
2019-02-08T01:43:03.909Z,99.99
2019-02-08T01:44:03.877Z,99.99
2019-02-08T01:45:03.859Z,99.99
2019-02-08T01:46:03.837Z,99.99
2019-02-08T01:47:03.863Z,99.99
2019-02-08T01:48:03.810Z,99.99
2019-02-08T01:49:03.793Z,99.99
2019-02-08T01:50:03.777Z,99.99
2019-02-08T01:51:03.764Z,99.99
2019-02-08T01:52:03.737Z,99.99
2019-02-08T01:53:03.715Z,99.99
2019-02-08T01:54:03.686Z,99.99
2019-02-08T01:55:03.730Z,99.99
2019-02-08T01:56:03.662Z,99.99
2019-02-08T01:57:03.633Z,99.99
2019-02-08T01:58:03.627Z,99.99
2019-02-08T01:59:03.610Z,99.99
2019-02-08T02:00:03.587Z,99.99
2019-02-08T02:01:03.608Z,99.99
2019-02-08T02:02:03.552Z,99.99
2019-02-08T02:03:03.530Z,99.99
2019-02-08T02:04:03.523Z,99.99
2019-02-08T02:05:03.489Z,99.99
2019-02-08T02:06:03.493Z,99.99
2019-02-08T02:07:03.457Z,99.99
2019-02-08T02:08:03.443Z,99.99
2019-02-08T02:09:03.418Z,99.99
2019-02-08T02:10:03.403Z,99.99
2019-02-08T02:11:03.409Z,99.99
2019-02-08T02:12:03.357Z,99.99
2019-02-08T02:13:03.331Z,99.99
2019-02-08T02:14:03.324Z,99.99
2019-02-08T02:15:03.454Z,99.99
2019-02-08T02:16:04.175Z,99.99
2019-02-08T02:17:03.274Z,99.99
2019-02-08T02:18:03.259Z,99.99
2019-02-08T02:19:03.225Z,99.99
2019-02-08T02:20:03.218Z,99.99
2019-02-08T02:21:03.228Z,99.99
2019-02-08T02:22:03.167Z,99.99
2019-02-08T02:23:03.184Z,99.99
2019-02-08T02:24:03.150Z,99.99
2019-02-08T02:25:03.109Z,99.99
2019-02-08T02:26:03.093Z,99.99
2019-02-08T02:27:03.078Z,99.99
2019-02-08T02:28:03.065Z,99.99
2019-02-08T02:29:03.036Z,99.99
2019-02-08T02:30:03.021Z,99.99
2019-02-08T02:31:03.004Z,99.99
2019-02-08T02:32:03.014Z,99.99
2019-02-08T02:33:02.979Z,99.99
2019-02-08T02:34:02.986Z,99.99
2019-02-08T02:35:02.934Z,99.99
2019-02-08T02:36:02.934Z,99.99
2019-02-08T02:37:02.896Z,99.99
2019-02-08T02:38:02.905Z,99.99
2019-02-08T02:39:02.866Z,99.99
2019-02-08T02:40:02.841Z,99.99
2019-02-08T02:41:02.812Z,99.99
2019-02-08T02:42:02.808Z,99.99
2019-02-08T02:43:02.787Z,99.99
2019-02-08T02:44:02.759Z,99.99
2019-02-08T02:45:02.736Z,99.99
2019-02-08T02:46:02.753Z,99.99
2019-02-08T02:47:02.717Z,99.99
2019-02-08T02:48:02.695Z,99.99
2019-02-08T02:49:02.678Z,99.99
2019-02-08T02:50:02.646Z,99.99
2019-02-08T02:51:02.638Z,99.99
2019-02-08T02:52:02.640Z,99.99
2019-02-08T02:53:02.595Z,99.99
2019-02-08T02:54:04.819Z,99.99
2019-02-08T02:55:02.546Z,99.99
2019-02-08T02:56:02.576Z,99.99
2019-02-08T02:57:02.543Z,99.99
2019-02-08T02:58:02.496Z,99.99
2019-02-08T02:59:02.485Z,99.99
2019-02-08T03:00:02.456Z,99.99
2019-02-08T03:01:02.438Z,99.99
2019-02-08T03:02:02.436Z,99.99
2019-02-08T03:03:02.570Z,99.99
2019-02-08T03:04:02.395Z,99.99
2019-02-08T03:05:02.383Z,99.99
2019-02-08T03:06:02.350Z,99.99
2019-02-08T03:07:02.334Z,99.99
2019-02-08T03:08:02.305Z,99.99
2019-02-08T03:09:02.327Z,99.99
2019-02-08T03:10:02.269Z,99.99
2019-02-08T03:11:02.253Z,99.99
2019-02-08T03:12:02.247Z,99.99
2019-02-08T03:13:02.351Z,99.99
2019-02-08T03:14:02.192Z,99.99
2019-02-08T03:15:02.186Z,99.99
2019-02-08T03:16:02.164Z,99.99
2019-02-08T03:17:02.150Z,99.99
2019-02-08T03:18:02.129Z,99.99
2019-02-08T03:19:02.133Z,99.99
2019-02-08T03:20:02.093Z,99.99
2019-02-08T03:21:02.081Z,99.99
2019-02-08T03:22:02.047Z,99.99
2019-02-08T03:23:02.039Z,99.99
2019-02-08T03:24:02.039Z,99.99
2019-02-08T03:25:01.989Z,99.99
2019-02-08T03:26:01.972Z,99.99
2019-02-08T03:27:01.953Z,99.99
2019-02-08T03:28:01.940Z,99.99
2019-02-08T03:29:02.057Z,99.99
2019-02-08T03:30:01.900Z,99.99
2019-02-08T03:31:01.881Z,99.99
2019-02-08T03:32:01.855Z,99.99
2019-02-08T03:33:01.836Z,99.99
2019-02-08T03:34:01.830Z,99.99
2019-02-08T03:35:01.824Z,99.99
2019-02-08T03:36:01.790Z,99.99
2019-02-08T03:37:01.760Z,99.99
2019-02-08T03:38:01.758Z,99.99
2019-02-08T03:39:01.722Z,99.99
2019-02-08T03:40:01.866Z,99.99
2019-02-08T03:41:01.686Z,99.99
2019-02-08T03:42:01.710Z,99.99
2019-02-08T03:43:01.663Z,99.99
2019-02-08T03:44:01.642Z,99.99
2019-02-08T03:45:01.637Z,99.99
2019-02-08T03:46:01.629Z,99.99
2019-02-08T03:47:01.577Z,99.82
2019-02-08T03:48:01.556Z,99.99
2019-02-08T03:49:01.538Z,99.99
2019-02-08T03:50:01.515Z,99.99
2019-02-08T03:51:01.546Z,99.99
2019-02-08T03:52:01.488Z,99.99
2019-02-08T03:53:01.473Z,99.99
2019-02-08T03:54:01.453Z,99.99
2019-02-08T03:55:01.470Z,99.99
2019-02-08T03:56:01.418Z,99.99
2019-02-08T03:57:01.385Z,99.99
2019-02-08T03:58:01.369Z,99.99
2019-02-08T03:59:01.592Z,99.99
2019-02-08T04:00:01.339Z,99.99
2019-02-08T04:01:01.354Z,99.99
2019-02-08T04:02:01.299Z,99.99
2019-02-08T04:03:01.301Z,99.99
2019-02-08T04:04:01.254Z,99.99
2019-02-08T04:05:01.231Z,99.99
2019-02-08T04:06:01.231Z,99.99
2019-02-08T04:07:01.197Z,99.99
2019-02-08T04:08:01.227Z,99.99
2019-02-08T04:09:01.169Z,99.99
2019-02-08T04:10:01.139Z,99.99
2019-02-08T04:11:01.126Z,99.99
2019-02-08T04:12:01.103Z,99.99
2019-02-08T04:13:01.113Z,99.99
2019-02-08T04:14:01.104Z,99.99
2019-02-08T04:15:01.058Z,99.99
2019-02-08T04:16:01.032Z,99.99
2019-02-08T04:17:01.017Z,99.99
2019-02-08T04:18:01.007Z,99.99
2019-02-08T04:19:01.039Z,99.99
2019-02-08T04:20:00.955Z,99.99
2019-02-08T04:21:00.930Z,99.99
2019-02-08T04:22:00.922Z,99.99
2019-02-08T04:23:00.902Z,99.99
2019-02-08T04:24:00.882Z,99.99
2019-02-08T04:25:00.863Z,99.99
2019-02-08T04:26:00.855Z,99.99
2019-02-08T04:27:00.818Z,99.99
2019-02-08T04:28:00.812Z,99.99
2019-02-08T04:29:00.787Z,99.99
2019-02-08T04:30:00.918Z,99.99
2019-02-08T04:31:00.748Z,99.99
2019-02-08T04:32:00.735Z,99.99
2019-02-08T04:33:00.722Z,99.99
2019-02-08T04:34:00.688Z,99.99
2019-02-08T04:35:00.677Z,99.99
2019-02-08T04:36:00.681Z,99.99
2019-02-08T04:37:00.650Z,99.99
2019-02-08T04:38:00.626Z,99.99
2019-02-08T04:39:00.609Z,99.99
2019-02-08T04:40:00.594Z,99.99
2019-02-08T04:41:00.606Z,99.99
2019-02-08T04:42:00.535Z,99.99
2019-02-08T04:43:00.536Z,99.99
2019-02-08T04:44:00.540Z,99.99
2019-02-08T04:45:00.498Z,99.99
2019-02-08T04:46:00.478Z,99.99
2019-02-08T04:47:00.467Z,99.99
2019-02-08T04:48:00.433Z,99.99
2019-02-08T04:49:00.426Z,99.99
2019-02-08T04:50:00.410Z,99.99
2019-02-08T04:51:00.385Z,99.99
2019-02-08T04:52:00.357Z,99.99
2019-02-08T04:53:00.336Z,99.99
2019-02-08T04:54:00.320Z,99.99
2019-02-08T04:55:00.344Z,99.99
2019-02-08T04:56:00.285Z,99.99
2019-02-08T04:57:00.404Z,99.99
2019-02-08T04:58:00.245Z,99.99
2019-02-08T04:59:00.224Z,99.99
2019-02-08T05:00:00.256Z,99.99
2019-02-08T05:01:00.184Z,99.99
2019-02-08T05:02:00.163Z,99.99
2019-02-08T05:03:00.176Z,99.99
2019-02-08T05:04:00.132Z,99.99
2019-02-08T05:05:00.181Z,99.99
2019-02-08T05:06:00.100Z,99.99
2019-02-08T05:07:00.087Z,99.99
2019-02-08T05:08:00.052Z,99.99
2019-02-08T05:09:00.070Z,99.99
2019-02-08T05:10:00.036Z,99.99
2019-02-08T05:10:59.994Z,99.99
2019-02-08T05:11:59.991Z,99.99
2019-02-08T05:12:59.989Z,99.99
2019-02-08T05:14:00.083Z,99.99
2019-02-08T05:14:59.936Z,99.99
2019-02-08T05:15:59.905Z,99.99
2019-02-08T05:16:59.885Z,99.99
2019-02-08T05:17:59.874Z,99.99
2019-02-08T05:18:59.856Z,99.99
2019-02-08T05:19:59.834Z,99.99
2019-02-08T05:20:59.820Z,99.99
2019-02-08T05:21:59.799Z,99.99
2019-02-08T05:22:59.775Z,99.99
2019-02-08T05:23:59.770Z,99.99
2019-02-08T05:24:59.777Z,99.99
2019-02-08T05:25:59.716Z,99.99
2019-02-08T05:26:59.703Z,99.99
2019-02-08T05:27:59.682Z,99.99
2019-02-08T05:28:59.841Z,99.99
2019-02-08T05:29:59.654Z,99.99
2019-02-08T05:30:59.638Z,99.99
2019-02-08T05:31:59.606Z,99.99
2019-02-08T05:32:59.601Z,99.99
2019-02-08T05:33:59.577Z,99.99
2019-02-08T05:34:59.577Z,99.99
2019-02-08T05:35:59.531Z,99.99
2019-02-08T05:36:59.556Z,99.99
2019-02-08T05:37:59.530Z,99.99
2019-02-08T05:38:59.481Z,99.99
2019-02-08T05:39:59.546Z,99.99
2019-02-08T05:40:59.444Z,99.99
2019-02-08T05:41:59.422Z,99.99
2019-02-08T05:42:59.410Z,99.99
2019-02-08T05:43:59.388Z,99.99
2019-02-08T05:44:59.371Z,99.99
2019-02-08T05:45:59.386Z,99.99
2019-02-08T05:46:59.341Z,99.99
2019-02-08T05:47:59.306Z,99.99
2019-02-08T05:48:59.289Z,99.99
2019-02-08T05:49:59.283Z,99.99
2019-02-08T05:50:59.418Z,99.99
2019-02-08T05:51:59.245Z,99.99
2019-02-08T05:52:59.222Z,99.99
2019-02-08T05:53:59.197Z,99.99
2019-02-08T05:54:59.188Z,99.99
2019-02-08T05:55:59.172Z,99.99
2019-02-08T05:56:59.156Z,99.99
2019-02-08T05:57:59.133Z,99.99
2019-02-08T05:58:59.102Z,99.99
2019-02-08T05:59:59.092Z,99.99
2019-02-08T06:00:59.098Z,99.99
2019-02-08T06:01:59.046Z,99.99
2019-02-08T06:02:59.134Z,99.99
2019-02-08T06:03:59.011Z,99.99
2019-02-08T06:04:58.991Z,99.99
2019-02-08T06:05:58.981Z,99.99
2019-02-08T06:06:58.961Z,99.99
2019-02-08T06:07:58.948Z,99.99
2019-02-08T06:08:58.940Z,99.99
2019-02-08T06:09:58.913Z,99.99
2019-02-08T06:10:58.896Z,99.99
2019-02-08T06:11:58.858Z,99.99
2019-02-08T06:12:58.838Z,99.99
2019-02-08T06:13:58.840Z,99.99
2019-02-08T06:14:58.805Z,99.99
2019-02-08T06:15:58.798Z,99.99
2019-02-08T06:16:58.774Z,99.99
2019-02-08T06:17:58.746Z,99.99
2019-02-08T06:18:58.729Z,99.99
2019-02-08T06:19:58.708Z,99.99
2019-02-08T06:20:58.713Z,99.99
2019-02-08T06:21:58.680Z,99.99
2019-02-08T06:22:58.649Z,99.99
2019-02-08T06:23:58.694Z,99.99
2019-02-08T06:25:03.942Z,99.99
2019-02-08T06:25:58.595Z,99.99
2019-02-08T06:26:58.579Z,99.99
2019-02-08T06:27:58.557Z,99.99
2019-02-08T06:28:58.700Z,99.99
2019-02-08T06:29:58.552Z,99.99
2019-02-08T06:30:58.510Z,99.99
2019-02-08T06:31:58.500Z,99.99
2019-02-08T06:32:58.462Z,99.99
2019-02-08T06:33:58.462Z,99.99
2019-02-08T06:34:58.427Z,99.99
2019-02-08T06:35:58.403Z,99.99
2019-02-08T06:36:58.416Z,99.99
2019-02-08T06:37:58.383Z,99.99
2019-02-08T06:38:58.355Z,99.99
2019-02-08T06:39:58.334Z,99.99
2019-02-08T06:40:58.327Z,99.99
2019-02-08T06:41:58.335Z,99.99
2019-02-08T06:42:58.277Z,99.99
2019-02-08T06:43:58.270Z,99.99
2019-02-08T06:44:58.290Z,99.99
2019-02-08T06:45:58.215Z,99.99
2019-02-08T06:46:58.196Z,99.99
2019-02-08T06:47:58.195Z,99.99
2019-02-08T06:48:58.157Z,99.99
2019-02-08T06:49:58.154Z,99.99
2019-02-08T06:50:58.159Z,99.99
2019-02-08T06:51:58.118Z,99.99
2019-02-08T06:52:58.097Z,99.99
2019-02-08T06:53:58.066Z,99.99
2019-02-08T06:54:58.054Z,99.99
2019-02-08T06:55:58.072Z,99.99
2019-02-08T06:56:58.011Z,99.99
2019-02-08T06:57:57.991Z,99.99
2019-02-08T06:58:57.989Z,99.99
2019-02-08T06:59:57.953Z,99.99
2019-02-08T07:00:57.967Z,99.99
2019-02-08T07:01:57.929Z,99.99
2019-02-08T07:02:57.934Z,99.99
2019-02-08T07:03:57.876Z,99.99
2019-02-08T07:04:57.857Z,99.99
2019-02-08T07:05:57.854Z,99.99
2019-02-08T07:06:57.901Z,99.99
2019-02-08T07:07:57.810Z,99.99
2019-02-08T07:08:57.790Z,99.99
2019-02-08T07:09:57.776Z,99.99
2019-02-08T07:10:57.755Z,99.99
2019-02-08T07:11:57.733Z,99.99
2019-02-08T07:12:57.740Z,99.99
2019-02-08T07:13:57.697Z,99.99
2019-02-08T07:14:57.671Z,99.99
2019-02-08T07:15:57.659Z,99.99
2019-02-08T07:16:57.667Z,99.99
2019-02-08T07:17:57.646Z,99.99
2019-02-08T07:18:57.595Z,99.99
2019-02-08T07:19:57.608Z,99.99
2019-02-08T07:20:57.560Z,99.99
2019-02-08T07:21:57.535Z,99.99
2019-02-08T07:22:57.563Z,99.99
2019-02-08T07:23:57.576Z,99.99
2019-02-08T07:24:57.487Z,99.99
2019-02-08T07:25:57.470Z,99.99
2019-02-08T07:26:57.443Z,99.99
2019-02-08T07:27:57.432Z,99.99
2019-02-08T07:28:57.604Z,99.99
2019-02-08T07:29:57.438Z,99.99
2019-02-08T07:30:57.378Z,99.99
2019-02-08T07:31:57.359Z,99.99
2019-02-08T07:32:57.336Z,99.99
2019-02-08T07:33:57.320Z,99.99
2019-02-08T07:34:57.285Z,99.99
2019-02-08T07:35:57.287Z,99.99
2019-02-08T07:36:57.255Z,99.99
2019-02-08T07:37:57.254Z,99.99
2019-02-08T07:38:57.227Z,99.99
2019-02-08T07:39:57.199Z,99.99
2019-02-08T07:40:57.206Z,99.99
2019-02-08T07:41:57.168Z,99.99
2019-02-08T07:42:57.148Z,99.99
2019-02-08T07:43:57.118Z,99.99
2019-02-08T07:44:57.101Z,99.99
2019-02-08T07:45:57.144Z,99.99
2019-02-08T07:46:57.067Z,99.99
2019-02-08T07:47:57.048Z,99.99
2019-02-08T07:48:57.018Z,99.99
2019-02-08T07:49:57.016Z,99.99
2019-02-08T07:50:56.987Z,99.99
2019-02-08T07:51:57.000Z,99.99
2019-02-08T07:52:57.226Z,99.99
2019-02-08T07:53:56.945Z,99.99
2019-02-08T07:54:56.915Z,99.99
2019-02-08T07:55:56.943Z,99.99
2019-02-08T07:56:56.883Z,99.99
2019-02-08T07:57:56.990Z,99.99
2019-02-08T07:58:56.849Z,99.99
2019-02-08T07:59:56.827Z,99.99
2019-02-08T08:00:56.809Z,99.99
2019-02-08T08:01:56.778Z,99.99
2019-02-08T08:02:56.768Z,99.99
2019-02-08T08:04:01.475Z,99.99
2019-02-08T08:04:56.813Z,99.99
2019-02-08T08:05:56.706Z,99.99
2019-02-08T08:06:56.685Z,99.99
2019-02-08T08:07:56.679Z,99.99
2019-02-08T08:08:56.663Z,99.99
2019-02-08T08:09:56.632Z,99.99
2019-02-08T08:10:56.640Z,99.99
2019-02-08T08:11:56.598Z,99.99
2019-02-08T08:12:56.569Z,99.99
2019-02-08T08:13:56.582Z,99.99
2019-02-08T08:14:56.570Z,99.99
2019-02-08T08:15:56.532Z,99.99
2019-02-08T08:16:56.505Z,99.99
2019-02-08T08:17:56.485Z,99.99
2019-02-08T08:18:56.456Z,99.99
2019-02-08T08:19:56.474Z,99.99
2019-02-08T08:20:56.482Z,99.99
2019-02-08T08:21:56.418Z,99.99
2019-02-08T08:22:56.378Z,99.99
2019-02-08T08:23:56.369Z,99.99
2019-02-08T08:24:56.341Z,99.99
2019-02-08T08:25:56.333Z,99.99
2019-02-08T08:26:56.313Z,99.99
2019-02-08T08:27:56.301Z,99.99
2019-02-08T08:28:56.515Z,99.99
2019-02-08T08:29:56.268Z,99.99
2019-02-08T08:30:56.238Z,99.99
2019-02-08T08:31:56.250Z,99.99
2019-02-08T08:32:56.203Z,99.99
2019-02-08T08:33:56.188Z,99.99
2019-02-08T08:34:56.167Z,99.99
2019-02-08T08:35:56.149Z,99.99
2019-02-08T08:36:56.191Z,99.99
2019-02-08T08:37:56.111Z,99.99
2019-02-08T08:38:56.096Z,99.99
2019-02-08T08:39:56.078Z,99.99
2019-02-08T08:40:56.039Z,99.99
2019-02-08T08:41:56.031Z,99.99
2019-02-08T08:42:56.050Z,99.99
2019-02-08T08:43:55.994Z,99.99
2019-02-08T08:44:55.966Z,99.99
2019-02-08T08:45:55.948Z,99.99
2019-02-08T08:46:55.979Z,99.99
2019-02-08T08:47:55.947Z,99.99
2019-02-08T08:48:55.893Z,99.99
2019-02-08T08:49:55.876Z,99.99
2019-02-08T08:50:55.871Z,99.99
2019-02-08T08:51:55.838Z,99.99
2019-02-08T08:52:55.858Z,99.99
2019-02-08T08:53:55.813Z,99.99
2019-02-08T08:54:55.787Z,99.99
2019-02-08T08:55:55.770Z,99.99
2019-02-08T08:56:55.743Z,99.99
2019-02-08T08:57:55.757Z,99.99
2019-02-08T08:58:55.715Z,99.99
2019-02-08T08:59:55.696Z,99.99
2019-02-08T09:00:55.664Z,99.99
2019-02-08T09:01:55.657Z,99.99
2019-02-08T09:02:55.645Z,99.99
2019-02-08T09:03:55.643Z,99.99
2019-02-08T09:04:55.591Z,99.99
2019-02-08T09:05:55.586Z,99.99
2019-02-08T09:06:55.552Z,99.99
2019-02-08T09:07:55.579Z,99.99
2019-02-08T09:08:55.542Z,99.99
2019-02-08T09:09:55.510Z,99.99
2019-02-08T09:10:55.481Z,99.99
2019-02-08T09:11:55.475Z,99.99
2019-02-08T09:12:55.498Z,99.99
2019-02-08T09:13:55.430Z,99.99
2019-02-08T09:14:55.406Z,99.99
2019-02-08T09:15:55.383Z,99.99
2019-02-08T09:16:55.383Z,99.99
2019-02-08T09:17:55.362Z,99.99
2019-02-08T09:18:55.482Z,99.99
2019-02-08T09:19:55.322Z,99.99
2019-02-08T09:20:55.309Z,99.99
2019-02-08T09:21:55.292Z,99.99
2019-02-08T09:22:55.266Z,99.99
2019-02-08T09:23:55.239Z,99.99
2019-02-08T09:24:55.263Z,99.99
2019-02-08T09:25:55.201Z,99.99
2019-02-08T09:26:55.196Z,99.99
2019-02-08T09:27:55.174Z,99.99
2019-02-08T09:28:55.154Z,99.99
2019-02-08T09:29:55.142Z,99.99
2019-02-08T09:30:55.110Z,99.99
2019-02-08T09:31:55.110Z,99.99
2019-02-08T09:32:55.086Z,99.99
2019-02-08T09:33:55.059Z,99.99
2019-02-08T09:34:55.261Z,99.99
2019-02-08T09:35:55.035Z,99.99
2019-02-08T09:36:55.008Z,99.99
2019-02-08T09:37:54.975Z,99.99
2019-02-08T09:38:54.965Z,99.99
2019-02-08T09:39:54.953Z,99.99
2019-02-08T09:40:54.959Z,99.99
2019-02-08T09:41:54.905Z,99.99
2019-02-08T09:42:54.891Z,99.99
2019-02-08T09:43:54.865Z,99.99
2019-02-08T09:44:54.880Z,99.99
2019-02-08T09:45:54.836Z,99.99
2019-02-08T09:46:54.826Z,99.99
2019-02-08T09:47:54.826Z,99.99
2019-02-08T09:48:54.780Z,99.99
2019-02-08T09:49:54.785Z,99.99
2019-02-08T09:50:54.735Z,99.99
2019-02-08T09:51:54.723Z,99.99
2019-02-08T09:52:54.707Z,99.99
2019-02-08T09:53:54.693Z,99.99
2019-02-08T09:54:54.685Z,99.99
2019-02-08T09:55:57.813Z,99.99
2019-02-08T09:56:54.634Z,99.99
2019-02-08T09:57:54.618Z,99.99
2019-02-08T09:58:54.633Z,99.99
2019-02-08T09:59:54.577Z,99.99
2019-02-08T10:00:54.550Z,99.99
2019-02-08T10:01:54.586Z,99.99
2019-02-08T10:02:54.530Z,99.99
2019-02-08T10:03:54.514Z,99.99
2019-02-08T10:04:54.478Z,99.99
2019-02-08T10:05:54.456Z,99.99
2019-02-08T10:06:54.457Z,99.99
2019-02-08T10:07:54.430Z,99.99
2019-02-08T10:08:54.548Z,99.99
2019-02-08T10:09:54.394Z,99.99
2019-02-08T10:10:54.377Z,99.99
2019-02-08T10:11:54.351Z,99.99
2019-02-08T10:12:54.328Z,99.99
2019-02-08T10:13:54.319Z,99.99
2019-02-08T10:14:54.916Z,99.99
2019-02-08T10:15:54.285Z,99.99
2019-02-08T10:16:54.270Z,99.99
2019-02-08T10:17:54.238Z,99.99
2019-02-08T10:18:54.240Z,99.99
2019-02-08T10:19:54.212Z,99.99
2019-02-08T10:20:54.249Z,99.99
2019-02-08T10:21:54.180Z,99.99
2019-02-08T10:22:54.153Z,99.99
2019-02-08T10:23:54.176Z,99.99
2019-02-08T10:24:54.134Z,99.99
2019-02-08T10:25:54.133Z,99.99
2019-02-08T10:26:54.091Z,99.99
2019-02-08T10:27:54.059Z,99.99
2019-02-08T10:28:54.311Z,99.99
2019-02-08T10:29:54.018Z,99.99
2019-02-08T10:30:54.145Z,99.99
2019-02-08T10:31:53.986Z,99.99
2019-02-08T10:32:53.977Z,99.99
2019-02-08T10:33:53.965Z,99.99
2019-02-08T10:34:53.931Z,99.99
2019-02-08T10:35:53.926Z,99.99
2019-02-08T10:36:53.924Z,99.99
2019-02-08T10:37:53.889Z,99.99
2019-02-08T10:38:53.862Z,99.99
2019-02-08T10:39:53.880Z,99.99
2019-02-08T10:40:53.829Z,99.99
2019-02-08T10:41:53.818Z,99.99
2019-02-08T10:42:53.791Z,99.99
2019-02-08T10:43:53.777Z,99.99
2019-02-08T10:44:53.756Z,99.99
2019-02-08T10:45:53.770Z,99.99
2019-02-08T10:46:53.729Z,99.99
2019-02-08T10:47:53.701Z,99.99
2019-02-08T10:48:53.686Z,99.99
2019-02-08T10:49:53.672Z,99.99
2019-02-08T10:50:53.793Z,99.99
2019-02-08T10:51:53.637Z,99.99
2019-02-08T10:52:53.605Z,99.99
2019-02-08T10:53:53.601Z,99.99
2019-02-08T10:54:53.578Z,99.99
2019-02-08T10:55:53.557Z,99.99
2019-02-08T10:56:53.538Z,99.99
2019-02-08T10:57:53.593Z,99.99
2019-02-08T10:58:53.511Z,99.99
2019-02-08T10:59:53.487Z,99.99
2019-02-08T11:00:53.462Z,99.99
2019-02-08T11:01:53.444Z,99.99
2019-02-08T11:02:53.433Z,99.99
2019-02-08T11:03:53.441Z,99.99
2019-02-08T11:04:53.426Z,99.99
2019-02-08T11:05:53.385Z,99.99
2019-02-08T11:06:53.358Z,99.99
2019-02-08T11:07:53.345Z,99.99
2019-02-08T11:08:53.360Z,99.99
2019-02-08T11:09:53.319Z,99.99
2019-02-08T11:10:53.294Z,99.99
2019-02-08T11:11:53.274Z,99.99
2019-02-08T11:12:53.247Z,99.99
2019-02-08T11:13:53.286Z,99.99
2019-02-08T11:14:53.226Z,99.99
2019-02-08T11:15:53.203Z,99.99
2019-02-08T11:16:53.179Z,99.99
2019-02-08T11:17:53.159Z,99.99
2019-02-08T11:18:53.145Z,99.99
2019-02-08T11:19:53.141Z,99.99
2019-02-08T11:20:53.136Z,99.99
2019-02-08T11:21:53.110Z,99.99
2019-02-08T11:22:53.770Z,99.99
2019-02-08T11:23:53.052Z,99.99
2019-02-08T11:24:53.068Z,99.99
2019-02-08T11:25:53.027Z,99.99
2019-02-08T11:26:52.998Z,99.99
2019-02-08T11:27:53.013Z,99.99
2019-02-08T11:28:53.211Z,99.99
2019-02-08T11:29:52.955Z,99.99
2019-02-08T11:30:52.946Z,99.99
2019-02-08T11:31:52.909Z,99.99
2019-02-08T11:32:52.937Z,99.99
2019-02-08T11:33:52.889Z,99.99
2019-02-08T11:34:52.903Z,99.99
2019-02-08T11:35:52.853Z,99.99
2019-02-08T11:36:52.826Z,99.99
2019-02-08T11:37:52.822Z,99.99
2019-02-08T11:38:52.811Z,99.99
2019-02-08T11:39:52.774Z,99.99
2019-02-08T11:40:52.783Z,99.99
2019-02-08T11:41:52.747Z,99.99
2019-02-08T11:42:52.717Z,99.99
2019-02-08T11:43:52.720Z,99.99
2019-02-08T11:44:52.688Z,99.99
2019-02-08T11:45:52.666Z,99.99
2019-02-08T11:46:52.664Z,99.99
2019-02-08T11:47:52.633Z,99.99
2019-02-08T11:48:52.611Z,99.99
2019-02-08T11:49:52.640Z,99.99
2019-02-08T11:50:52.610Z,99.99
2019-02-08T11:51:52.575Z,99.99
2019-02-08T11:52:52.544Z,99.99
2019-02-08T11:53:52.523Z,99.99
2019-02-08T11:54:52.508Z,99.99
2019-02-08T11:55:52.529Z,99.99
2019-02-08T11:56:52.476Z,99.99
2019-02-08T11:57:52.471Z,99.99
2019-02-08T11:58:52.518Z,99.99
2019-02-08T11:59:52.489Z,99.99
2019-02-08T12:00:52.413Z,99.99
2019-02-08T12:01:52.393Z,99.99
2019-02-08T12:02:52.369Z,99.99
2019-02-08T12:03:52.363Z,99.99
2019-02-08T12:04:52.345Z,99.99
2019-02-08T12:05:52.364Z,99.99
2019-02-08T12:06:52.300Z,99.99
2019-02-08T12:07:52.295Z,99.99
2019-02-08T12:08:52.267Z,99.99
2019-02-08T12:09:52.246Z,99.99
2019-02-08T12:10:52.276Z,99.99
2019-02-08T12:11:52.219Z,99.99
2019-02-08T12:12:52.200Z,99.99
2019-02-08T12:13:52.187Z,99.99
2019-02-08T12:14:52.208Z,99.99
2019-02-08T12:15:52.152Z,99.99
2019-02-08T12:16:52.276Z,99.99
2019-02-08T12:17:52.118Z,99.99
2019-02-08T12:18:52.117Z,99.99
2019-02-08T12:19:52.083Z,99.99
2019-02-08T12:20:52.065Z,99.99
2019-02-08T12:21:52.041Z,99.99
2019-02-08T12:22:52.070Z,99.99
2019-02-08T12:23:52.015Z,99.99
2019-02-08T12:24:52.579Z,99.07
2019-02-08T12:25:51.971Z,99.99
2019-02-08T12:26:51.966Z,99.99
2019-02-08T12:27:51.983Z,99.99
2019-02-08T12:28:52.170Z,99.84
2019-02-08T12:29:51.901Z,99.84
2019-02-08T12:30:51.891Z,99.99
2019-02-08T12:31:51.899Z,99.99
2019-02-08T12:32:51.886Z,99.74
2019-02-08T12:33:51.850Z,98.88
2019-02-08T12:34:51.835Z,98.79
2019-02-08T12:35:51.803Z,99.64
2019-02-08T12:36:51.795Z,99.07
2019-02-08T12:37:51.798Z,99.26
2019-02-08T12:38:51.761Z,99.02
2019-02-08T12:39:51.741Z,99.50
2019-02-08T12:40:51.734Z,99.21
2019-02-08T12:41:51.699Z,99.50
2019-02-08T12:42:51.688Z,99.40
2019-02-08T12:43:51.671Z,99.40
2019-02-08T12:44:51.663Z,99.99
2019-02-08T12:45:51.652Z,99.88
2019-02-08T12:46:51.651Z,99.69
2019-02-08T12:47:51.609Z,99.78
2019-02-08T12:48:51.586Z,99.69
2019-02-08T12:49:51.573Z,99.97
2019-02-08T12:50:51.574Z,99.99
2019-02-08T12:51:51.534Z,99.30
2019-02-08T12:52:51.518Z,99.11
2019-02-08T12:53:51.544Z,99.30
2019-02-08T12:54:51.628Z,99.69
2019-02-08T12:55:51.470Z,99.97
2019-02-08T12:56:51.453Z,99.11
2019-02-08T12:57:51.441Z,98.69
2019-02-08T12:58:51.403Z,99.07
2019-02-08T12:59:51.435Z,99.26
2019-02-08T13:00:51.411Z,98.50
2019-02-08T13:01:51.423Z,98.41
2019-02-08T13:02:51.344Z,98.60
2019-02-08T13:03:51.320Z,98.97
2019-02-08T13:04:51.333Z,98.88
2019-02-08T13:05:51.295Z,98.69
2019-02-08T13:06:51.280Z,99.36
2019-02-08T13:07:51.278Z,99.45
2019-02-08T13:08:51.252Z,98.97
2019-02-08T13:09:51.220Z,99.55
2019-02-08T13:10:51.228Z,99.84
2019-02-08T13:11:51.198Z,99.99
2019-02-08T13:12:51.178Z,99.64
2019-02-08T13:13:51.168Z,99.36
2019-02-08T13:14:51.139Z,99.99
2019-02-08T13:15:51.185Z,99.93
2019-02-08T13:16:51.109Z,99.45
2019-02-08T13:17:51.089Z,99.55
2019-02-08T13:18:51.072Z,99.64
2019-02-08T13:19:51.108Z,99.55
2019-02-08T13:20:51.038Z,99.74
2019-02-08T13:21:51.020Z,99.99
2019-02-08T13:22:50.993Z,99.99
2019-02-08T13:23:50.997Z,99.99
2019-02-08T13:24:50.961Z,99.99
2019-02-08T13:25:50.982Z,99.99
2019-02-08T13:26:52.909Z,99.99
2019-02-08T13:27:50.915Z,99.99
2019-02-08T13:28:50.891Z,99.99
2019-02-08T13:29:50.869Z,99.99
2019-02-08T13:30:50.915Z,99.99
2019-02-08T13:31:50.833Z,99.99
2019-02-08T13:32:50.827Z,99.99
2019-02-08T13:33:50.803Z,99.99
2019-02-08T13:34:50.795Z,99.99
2019-02-08T13:35:50.773Z,99.99
2019-02-08T13:36:50.757Z,99.99
2019-02-08T13:37:50.748Z,99.74
2019-02-08T13:38:50.994Z,99.84
2019-02-08T13:39:50.706Z,99.99